sensor_id;sensor_type;location;lat;lon;timestamp;temperature;humidity
7341;DHT22;6870;50.944;6.932;2023-04-03T00:01:21;19.20;31.10
7341;DHT22;6870;50.944;6.932;2023-04-03T00:03:49;19.50;31.40
7341;DHT22;6870;50.944;6.932;2023-04-03T00:06:18;19.10;31.00
7341;DHT22;6870;50.944;6.932;2023-04-03T00:08:48;19.40;31.20
7341;DHT22;6870;50.944;6.932;2023-04-03T00:11:17;19.30;31.90
7341;DHT22;6870;50.944;6.932;2023-04-03T00:13:45;19.40;31.10
7341;DHT22;6870;50.944;6.932;2023-04-03T00:16:13;19.20;31.10
7341;DHT22;6870;50.944;6.932;2023-04-03T00:18:42;19.20;31.10
7341;DHT22;6870;50.944;6.932;2023-04-03T00:21:12;19.10;31.00
7341;DHT22;6870;50.944;6.932;2023-04-03T00:23:41;19.40;31.00
7341;DHT22;6870;50.944;6.932;2023-04-03T00:26:10;19.40;31.20
7341;DHT22;6870;50.944;6.932;2023-04-03T00:28:38;19.00;30.80
7341;DHT22;6870;50.944;6.932;2023-04-03T00:31:06;19.00;30.60
7341;DHT22;6870;50.944;6.932;2023-04-03T00:33:35;19.10;30.70
7341;DHT22;6870;50.944;6.932;2023-04-03T00:36:07;19.30;31.10
7341;DHT22;6870;50.944;6.932;2023-04-03T00:38:35;19.20;30.80
7341;DHT22;6870;50.944;6.932;2023-04-03T00:41:04;18.90;30.60
7341;DHT22;6870;50.944;6.932;2023-04-03T00:43:33;19.10;30.90
7341;DHT22;6870;50.944;6.932;2023-04-03T00:46:01;19.00;30.60
7341;DHT22;6870;50.944;6.932;2023-04-03T00:48:31;19.30;30.90
7341;DHT22;6870;50.944;6.932;2023-04-03T00:51:02;19.20;30.70
7341;DHT22;6870;50.944;6.932;2023-04-03T00:53:34;18.80;30.50
7341;DHT22;6870;50.944;6.932;2023-04-03T00:56:06;19.00;30.70
7341;DHT22;6870;50.944;6.932;2023-04-03T00:58:41;18.90;30.50
7341;DHT22;6870;50.944;6.932;2023-04-03T01:01:14;19.10;30.90
7341;DHT22;6870;50.944;6.932;2023-04-03T01:03:44;19.20;31.10
7341;DHT22;6870;50.944;6.932;2023-04-03T01:06:13;18.70;30.80
7341;DHT22;6870;50.944;6.932;2023-04-03T01:08:42;19.10;31.30
7341;DHT22;6870;50.944;6.932;2023-04-03T01:11:13;19.10;31.50
7341;DHT22;6870;50.944;6.932;2023-04-03T01:13:42;18.90;31.60
7341;DHT22;6870;50.944;6.932;2023-04-03T01:16:11;18.80;31.70
7341;DHT22;6870;50.944;6.932;2023-04-03T01:18:39;19.00;31.90
7341;DHT22;6870;50.944;6.932;2023-04-03T01:24:38;19.00;32.00
7341;DHT22;6870;50.944;6.932;2023-04-03T01:27:08;19.20;32.20
7341;DHT22;6870;50.944;6.932;2023-04-03T01:29:39;18.70;30.70
7341;DHT22;6870;50.944;6.932;2023-04-03T01:32:09;19.00;32.40
7341;DHT22;6870;50.944;6.932;2023-04-03T01:34:37;19.10;32.40
7341;DHT22;6870;50.944;6.932;2023-04-03T01:37:05;19.00;32.60
7341;DHT22;6870;50.944;6.932;2023-04-03T01:39:33;19.10;32.70
7341;DHT22;6870;50.944;6.932;2023-04-03T01:42:01;19.10;32.00
7341;DHT22;6870;50.944;6.932;2023-04-03T01:44:30;18.80;32.60
7341;DHT22;6870;50.944;6.932;2023-04-03T01:46:58;19.20;33.00
7341;DHT22;6870;50.944;6.932;2023-04-03T01:49:27;19.20;33.00
7341;DHT22;6870;50.944;6.932;2023-04-03T01:51:55;19.00;32.90
7341;DHT22;6870;50.944;6.932;2023-04-03T01:54:23;18.90;32.20
7341;DHT22;6870;50.944;6.932;2023-04-03T01:56:51;19.00;33.00
7341;DHT22;6870;50.944;6.932;2023-04-03T01:59:19;18.80;32.90
7341;DHT22;6870;50.944;6.932;2023-04-03T02:01:47;18.90;33.20
7341;DHT22;6870;50.944;6.932;2023-04-03T02:04:16;19.00;32.70
7341;DHT22;6870;50.944;6.932;2023-04-03T02:06:45;18.90;33.00
7341;DHT22;6870;50.944;6.932;2023-04-03T02:09:13;19.00;33.20
7341;DHT22;6870;50.944;6.932;2023-04-03T02:11:41;19.00;32.40
7341;DHT22;6870;50.944;6.932;2023-04-03T02:14:09;19.00;33.20
7341;DHT22;6870;50.944;6.932;2023-04-03T02:16:37;18.70;33.10
7341;DHT22;6870;50.944;6.932;2023-04-03T02:19:05;18.80;33.20
7341;DHT22;6870;50.944;6.932;2023-04-03T02:21:33;18.90;33.30
7341;DHT22;6870;50.944;6.932;2023-04-03T02:24:03;18.50;33.00
7341;DHT22;6870;50.944;6.932;2023-04-03T02:26:31;19.00;33.60
7341;DHT22;6870;50.944;6.932;2023-04-03T02:28:59;18.70;33.40
7341;DHT22;6870;50.944;6.932;2023-04-03T02:31:27;19.00;33.70
7341;DHT22;6870;50.944;6.932;2023-04-03T02:33:56;19.00;33.80
7341;DHT22;6870;50.944;6.932;2023-04-03T02:36:24;18.60;33.40
7341;DHT22;6870;50.944;6.932;2023-04-03T02:38:52;18.90;33.60
7341;DHT22;6870;50.944;6.932;2023-04-03T02:41:21;18.80;32.70
7341;DHT22;6870;50.944;6.932;2023-04-03T02:43:49;18.90;33.80
7341;DHT22;6870;50.944;6.932;2023-04-03T02:46:17;19.00;33.90
7341;DHT22;6870;50.944;6.932;2023-04-03T02:48:45;18.50;32.80
7341;DHT22;6870;50.944;6.932;2023-04-03T02:51:14;19.10;34.00
7341;DHT22;6870;50.944;6.932;2023-04-03T02:53:42;18.70;33.00
7341;DHT22;6870;50.944;6.932;2023-04-03T02:56:10;18.80;34.00
7341;DHT22;6870;50.944;6.932;2023-04-03T02:58:39;18.80;34.10
7341;DHT22;6870;50.944;6.932;2023-04-03T03:01:07;18.80;33.80
7341;DHT22;6870;50.944;6.932;2023-04-03T03:03:35;19.00;34.20
7341;DHT22;6870;50.944;6.932;2023-04-03T03:06:05;18.90;34.20
7341;DHT22;6870;50.944;6.932;2023-04-03T03:08:34;18.70;34.10
7341;DHT22;6870;50.944;6.932;2023-04-03T03:11:02;18.60;34.00
7341;DHT22;6870;50.944;6.932;2023-04-03T03:13:31;18.70;34.10
7341;DHT22;6870;50.944;6.932;2023-04-03T03:16:01;18.60;34.00
7341;DHT22;6870;50.944;6.932;2023-04-03T03:18:30;18.60;33.90
7341;DHT22;6870;50.944;6.932;2023-04-03T03:20:59;18.60;34.00
7341;DHT22;6870;50.944;6.932;2023-04-03T03:23:30;18.30;33.70
7341;DHT22;6870;50.944;6.932;2023-04-03T03:26:02;18.50;34.00
7341;DHT22;6870;50.944;6.932;2023-04-03T03:28:32;18.80;34.30
7341;DHT22;6870;50.944;6.932;2023-04-03T03:31:02;18.40;33.90
7341;DHT22;6870;50.944;6.932;2023-04-03T03:33:30;18.90;34.40
7341;DHT22;6870;50.944;6.932;2023-04-03T03:35:59;18.70;34.30
7341;DHT22;6870;50.944;6.932;2023-04-03T03:38:27;18.60;34.30
7341;DHT22;6870;50.944;6.932;2023-04-03T03:40:55;18.60;34.30
7341;DHT22;6870;50.944;6.932;2023-04-03T03:43:23;18.80;34.30
7341;DHT22;6870;50.944;6.932;2023-04-03T03:45:52;18.70;34.30
7341;DHT22;6870;50.944;6.932;2023-04-03T03:48:23;18.40;34.10
7341;DHT22;6870;50.944;6.932;2023-04-03T03:50:51;18.90;34.50
7341;DHT22;6870;50.944;6.932;2023-04-03T03:53:19;18.70;34.20
7341;DHT22;6870;50.944;6.932;2023-04-03T03:55:47;18.30;34.00
7341;DHT22;6870;50.944;6.932;2023-04-03T03:58:15;18.80;34.30
7341;DHT22;6870;50.944;6.932;2023-04-03T04:00:43;18.40;33.80
7341;DHT22;6870;50.944;6.932;2023-04-03T04:03:11;18.80;34.20
7341;DHT22;6870;50.944;6.932;2023-04-03T04:05:40;18.90;34.20
7341;DHT22;6870;50.944;6.932;2023-04-03T04:08:09;18.80;34.10
7341;DHT22;6870;50.944;6.932;2023-04-03T04:10:37;18.80;34.00
7341;DHT22;6870;50.944;6.932;2023-04-03T04:13:05;18.90;34.00
7341;DHT22;6870;50.944;6.932;2023-04-03T04:15:33;18.60;33.80
7341;DHT22;6870;50.944;6.932;2023-04-03T04:18:02;18.90;34.10
7341;DHT22;6870;50.944;6.932;2023-04-03T04:20:31;18.90;34.10
7341;DHT22;6870;50.944;6.932;2023-04-03T04:23:00;19.00;34.10
7341;DHT22;6870;50.944;6.932;2023-04-03T04:25:28;18.80;32.90
7341;DHT22;6870;50.944;6.932;2023-04-03T04:27:56;18.70;33.90
7341;DHT22;6870;50.944;6.932;2023-04-03T04:30:24;18.40;33.80
7341;DHT22;6870;50.944;6.932;2023-04-03T04:32:54;18.60;34.00
7341;DHT22;6870;50.944;6.932;2023-04-03T04:35:22;18.30;33.60
7341;DHT22;6870;50.944;6.932;2023-04-03T04:37:50;18.80;34.20
7341;DHT22;6870;50.944;6.932;2023-04-03T04:40:19;18.80;34.20
7341;DHT22;6870;50.944;6.932;2023-04-03T04:42:47;19.00;34.30
7341;DHT22;6870;50.944;6.932;2023-04-03T04:45:15;18.50;34.00
7341;DHT22;6870;50.944;6.932;2023-04-03T04:47:44;18.90;34.30
7341;DHT22;6870;50.944;6.932;2023-04-03T04:50:12;18.70;33.90
7341;DHT22;6870;50.944;6.932;2023-04-03T04:52:40;18.60;34.30
7341;DHT22;6870;50.944;6.932;2023-04-03T04:55:08;18.70;34.40
7341;DHT22;6870;50.944;6.932;2023-04-03T04:57:37;18.60;34.20
7341;DHT22;6870;50.944;6.932;2023-04-03T05:00:06;18.70;34.30
7341;DHT22;6870;50.944;6.932;2023-04-03T05:02:35;18.50;34.00
7341;DHT22;6870;50.944;6.932;2023-04-03T05:05:04;18.70;34.00
7341;DHT22;6870;50.944;6.932;2023-04-03T05:07:32;18.60;33.90
7341;DHT22;6870;50.944;6.932;2023-04-03T05:10:02;18.70;34.20
7341;DHT22;6870;50.944;6.932;2023-04-03T05:12:31;18.50;33.90
7341;DHT22;6870;50.944;6.932;2023-04-03T05:15:00;18.60;34.80
7341;DHT22;6870;50.944;6.932;2023-04-03T05:17:29;19.00;34.40
7341;DHT22;6870;50.944;6.932;2023-04-03T05:19:57;18.60;33.90
7341;DHT22;6870;50.944;6.932;2023-04-03T05:22:25;18.70;33.10
7341;DHT22;6870;50.944;6.932;2023-04-03T05:24:53;18.70;33.90
7341;DHT22;6870;50.944;6.932;2023-04-03T05:27:21;18.70;33.30
7341;DHT22;6870;50.944;6.932;2023-04-03T05:29:52;18.90;34.30
7341;DHT22;6870;50.944;6.932;2023-04-03T05:32:22;18.60;33.70
7341;DHT22;6870;50.944;6.932;2023-04-03T05:34:50;18.60;33.90
7341;DHT22;6870;50.944;6.932;2023-04-03T05:37:19;19.00;34.10
7341;DHT22;6870;50.944;6.932;2023-04-03T05:39:47;18.80;34.00
7341;DHT22;6870;50.944;6.932;2023-04-03T05:42:15;18.70;33.90
7341;DHT22;6870;50.944;6.932;2023-04-03T05:44:43;19.00;34.10
7341;DHT22;6870;50.944;6.932;2023-04-03T05:47:13;18.80;33.90
7341;DHT22;6870;50.944;6.932;2023-04-03T05:49:43;19.10;33.90
7341;DHT22;6870;50.944;6.932;2023-04-03T05:52:18;18.60;33.50
7341;DHT22;6870;50.944;6.932;2023-04-03T05:54:49;18.70;33.60
7341;DHT22;6870;50.944;6.932;2023-04-03T05:57:17;18.70;33.70
7341;DHT22;6870;50.944;6.932;2023-04-03T05:59:47;19.00;33.90
7341;DHT22;6870;50.944;6.932;2023-04-03T06:02:18;18.70;33.70
7341;DHT22;6870;50.944;6.932;2023-04-03T06:04:48;18.70;33.50
7341;DHT22;6870;50.944;6.932;2023-04-03T06:07:19;18.70;33.70
7341;DHT22;6870;50.944;6.932;2023-04-03T06:09:58;18.50;33.90
7341;DHT22;6870;50.944;6.932;2023-04-03T06:12:32;18.60;34.00
7341;DHT22;6870;50.944;6.932;2023-04-03T06:15:00;18.60;34.10
7341;DHT22;6870;50.944;6.932;2023-04-03T06:17:28;18.50;34.20
7341;DHT22;6870;50.944;6.932;2023-04-03T06:19:59;19.00;34.50
7341;DHT22;6870;50.944;6.932;2023-04-03T06:22:27;18.70;34.20
7341;DHT22;6870;50.944;6.932;2023-04-03T06:24:56;18.70;33.90
7341;DHT22;6870;50.944;6.932;2023-04-03T06:27:25;18.80;34.00
7341;DHT22;6870;50.944;6.932;2023-04-03T06:29:53;18.70;33.50
7341;DHT22;6870;50.944;6.932;2023-04-03T06:32:21;18.80;32.80
7341;DHT22;6870;50.944;6.932;2023-04-03T06:34:49;18.50;33.30
7341;DHT22;6870;50.944;6.932;2023-04-03T06:37:20;18.80;33.40
7341;DHT22;6870;50.944;6.932;2023-04-03T06:39:52;18.60;33.10
7341;DHT22;6870;50.944;6.932;2023-04-03T06:42:21;19.00;32.40
7341;DHT22;6870;50.944;6.932;2023-04-03T06:44:49;18.80;33.00
7341;DHT22;6870;50.944;6.932;2023-04-03T06:47:17;18.60;32.70
7341;DHT22;6870;50.944;6.932;2023-04-03T06:49:45;18.80;32.80
7341;DHT22;6870;50.944;6.932;2023-04-03T06:52:13;18.70;31.70
7341;DHT22;6870;50.944;6.932;2023-04-03T06:54:42;19.00;32.70
7341;DHT22;6870;50.944;6.932;2023-04-03T06:57:11;18.70;32.60
7341;DHT22;6870;50.944;6.932;2023-04-03T06:59:39;18.90;32.60
7341;DHT22;6870;50.944;6.932;2023-04-03T07:02:09;18.70;32.40
7341;DHT22;6870;50.944;6.932;2023-04-03T07:04:39;18.70;32.20
7341;DHT22;6870;50.944;6.932;2023-04-03T07:07:07;19.00;32.80
7341;DHT22;6870;50.944;6.932;2023-04-03T07:09:35;18.80;32.30
7341;DHT22;6870;50.944;6.932;2023-04-03T07:12:04;19.10;32.70
7341;DHT22;6870;50.944;6.932;2023-04-03T07:14:33;18.60;32.20
7341;DHT22;6870;50.944;6.932;2023-04-03T07:17:01;18.70;32.20
7341;DHT22;6870;50.944;6.932;2023-04-03T07:19:29;19.20;32.60
7341;DHT22;6870;50.944;6.932;2023-04-03T07:21:58;19.00;32.40
7341;DHT22;6870;50.944;6.932;2023-04-03T07:24:26;19.00;32.30
7341;DHT22;6870;50.944;6.932;2023-04-03T07:26:54;19.20;31.70
7341;DHT22;6870;50.944;6.932;2023-04-03T07:29:23;19.20;31.60
7341;DHT22;6870;50.944;6.932;2023-04-03T07:31:51;18.90;32.00
7341;DHT22;6870;50.944;6.932;2023-04-03T07:34:19;19.20;32.20
7341;DHT22;6870;50.944;6.932;2023-04-03T07:36:47;19.00;32.00
7341;DHT22;6870;50.944;6.932;2023-04-03T07:39:15;19.00;32.00
7341;DHT22;6870;50.944;6.932;2023-04-03T07:41:43;19.10;32.10
7341;DHT22;6870;50.944;6.932;2023-04-03T07:44:12;19.20;32.20
7341;DHT22;6870;50.944;6.932;2023-04-03T07:46:41;19.20;31.90
7341;DHT22;6870;50.944;6.932;2023-04-03T07:49:09;19.10;31.70
7341;DHT22;6870;50.944;6.932;2023-04-03T07:51:37;19.30;32.00
7341;DHT22;6870;50.944;6.932;2023-04-03T07:54:06;18.90;31.50
7341;DHT22;6870;50.944;6.932;2023-04-03T07:56:34;19.00;31.40
7341;DHT22;6870;50.944;6.932;2023-04-03T07:59:02;19.00;31.30
7341;DHT22;6870;50.944;6.932;2023-04-03T08:01:30;19.10;31.50
7341;DHT22;6870;50.944;6.932;2023-04-03T08:04:01;19.10;31.00
7341;DHT22;6870;50.944;6.932;2023-04-03T08:06:31;19.10;31.20
7341;DHT22;6870;50.944;6.932;2023-04-03T08:09:13;18.90;31.00
7341;DHT22;6870;50.944;6.932;2023-04-03T08:11:42;19.20;31.20
7341;DHT22;6870;50.944;6.932;2023-04-03T08:14:11;18.90;30.90
7341;DHT22;6870;50.944;6.932;2023-04-03T08:16:43;19.30;31.20
7341;DHT22;6870;50.944;6.932;2023-04-03T08:19:14;19.20;30.90
7341;DHT22;6870;50.944;6.932;2023-04-03T08:21:52;19.20;30.90
7341;DHT22;6870;50.944;6.932;2023-04-03T08:24:21;19.30;30.60
7341;DHT22;6870;50.944;6.932;2023-04-03T08:26:49;19.30;30.50
7341;DHT22;6870;50.944;6.932;2023-04-03T08:29:17;19.20;30.60
7341;DHT22;6870;50.944;6.932;2023-04-03T08:31:45;19.30;30.50
7341;DHT22;6870;50.944;6.932;2023-04-03T08:34:14;19.50;30.50
7341;DHT22;6870;50.944;6.932;2023-04-03T08:36:42;19.50;30.50
7341;DHT22;6870;50.944;6.932;2023-04-03T08:39:11;19.60;30.20
7341;DHT22;6870;50.944;6.932;2023-04-03T08:41:41;19.60;30.60
7341;DHT22;6870;50.944;6.932;2023-04-03T08:44:15;19.30;30.40
7341;DHT22;6870;50.944;6.932;2023-04-03T08:47:00;19.40;30.70
7341;DHT22;6870;50.944;6.932;2023-04-03T08:49:33;19.40;31.20
7341;DHT22;6870;50.944;6.932;2023-04-03T08:52:09;19.40;31.20
7341;DHT22;6870;50.944;6.932;2023-04-03T08:54:49;19.70;31.50
7341;DHT22;6870;50.944;6.932;2023-04-03T08:57:24;19.40;31.00
7341;DHT22;6870;50.944;6.932;2023-04-03T08:59:58;19.70;31.00
7341;DHT22;6870;50.944;6.932;2023-04-03T09:02:33;19.70;30.70
7341;DHT22;6870;50.944;6.932;2023-04-03T09:05:11;19.70;30.20
7341;DHT22;6870;50.944;6.932;2023-04-03T09:07:44;19.90;30.00
7341;DHT22;6870;50.944;6.932;2023-04-03T09:10:18;19.90;29.80
7341;DHT22;6870;50.944;6.932;2023-04-03T09:12:58;19.70;29.40
7341;DHT22;6870;50.944;6.932;2023-04-03T09:15:29;19.90;29.00
7341;DHT22;6870;50.944;6.932;2023-04-03T09:18:11;20.00;28.90
7341;DHT22;6870;50.944;6.932;2023-04-03T09:20:48;20.40;29.00
7341;DHT22;6870;50.944;6.932;2023-04-03T09:23:24;19.80;28.60
7341;DHT22;6870;50.944;6.932;2023-04-03T09:26:00;20.20;28.70
7341;DHT22;6870;50.944;6.932;2023-04-03T09:28:34;20.10;28.50
7341;DHT22;6870;50.944;6.932;2023-04-03T09:31:19;20.00;28.40
7341;DHT22;6870;50.944;6.932;2023-04-03T09:33:50;20.30;28.20
7341;DHT22;6870;50.944;6.932;2023-04-03T09:36:44;20.00;28.00
7341;DHT22;6870;50.944;6.932;2023-04-03T09:39:15;20.20;27.90
7341;DHT22;6870;50.944;6.932;2023-04-03T09:41:57;20.50;27.90
7341;DHT22;6870;50.944;6.932;2023-04-03T09:44:28;20.30;27.90
7341;DHT22;6870;50.944;6.932;2023-04-03T09:46:58;20.80;28.20
7341;DHT22;6870;50.944;6.932;2023-04-03T09:49:27;20.60;27.80
7341;DHT22;6870;50.944;6.932;2023-04-03T09:51:56;20.40;27.80
7341;DHT22;6870;50.944;6.932;2023-04-03T09:54:35;20.70;27.80
7341;DHT22;6870;50.944;6.932;2023-04-03T09:57:09;20.90;28.00
7341;DHT22;6870;50.944;6.932;2023-04-03T09:59:44;20.80;27.40
7341;DHT22;6870;50.944;6.932;2023-04-03T10:02:32;21.30;28.30
7341;DHT22;6870;50.944;6.932;2023-04-03T10:05:05;21.30;28.40
7341;DHT22;6870;50.944;6.932;2023-04-03T10:08:07;21.40;28.30
7341;DHT22;6870;50.944;6.932;2023-04-03T10:10:37;21.20;28.10
7341;DHT22;6870;50.944;6.932;2023-04-03T10:13:07;21.10;27.30
7341;DHT22;6870;50.944;6.932;2023-04-03T10:15:51;21.20;28.00
7341;DHT22;6870;50.944;6.932;2023-04-03T10:18:31;21.30;27.50
7341;DHT22;6870;50.944;6.932;2023-04-03T10:21:04;21.60;27.70
7341;DHT22;6870;50.944;6.932;2023-04-03T10:23:53;21.60;27.50
7341;DHT22;6870;50.944;6.932;2023-04-03T10:26:29;21.40;27.00
7341;DHT22;6870;50.944;6.932;2023-04-03T10:29:09;21.60;26.90
7341;DHT22;6870;50.944;6.932;2023-04-03T10:31:46;21.50;26.60
7341;DHT22;6870;50.944;6.932;2023-04-03T10:34:21;21.40;26.30
7341;DHT22;6870;50.944;6.932;2023-04-03T10:36:57;21.90;26.40
7341;DHT22;6870;50.944;6.932;2023-04-03T10:39:33;21.60;26.10
7341;DHT22;6870;50.944;6.932;2023-04-03T10:42:09;21.60;25.90
7341;DHT22;6870;50.944;6.932;2023-04-03T10:45:03;21.70;25.80
7341;DHT22;6870;50.944;6.932;2023-04-03T10:47:40;21.70;25.70
7341;DHT22;6870;50.944;6.932;2023-04-03T10:50:26;21.90;25.70
7341;DHT22;6870;50.944;6.932;2023-04-03T10:53:04;21.60;25.40
7341;DHT22;6870;50.944;6.932;2023-04-03T10:55:43;21.70;25.30
7341;DHT22;6870;50.944;6.932;2023-04-03T10:58:20;21.80;25.10
7341;DHT22;6870;50.944;6.932;2023-04-03T11:00:54;22.10;25.20
7341;DHT22;6870;50.944;6.932;2023-04-03T11:03:29;21.90;24.90
7341;DHT22;6870;50.944;6.932;2023-04-03T11:06:01;22.40;25.20
7341;DHT22;6870;50.944;6.932;2023-04-03T11:08:35;22.10;24.90
7341;DHT22;6870;50.944;6.932;2023-04-03T11:11:11;22.20;24.70
7341;DHT22;6870;50.944;6.932;2023-04-03T11:13:43;22.00;24.50
7341;DHT22;6870;50.944;6.932;2023-04-03T11:16:19;21.90;24.40
7341;DHT22;6870;50.944;6.932;2023-04-03T11:18:52;22.20;24.70
7341;DHT22;6870;50.944;6.932;2023-04-03T11:21:27;22.50;24.70
7341;DHT22;6870;50.944;6.932;2023-04-03T11:23:58;22.20;23.40
7341;DHT22;6870;50.944;6.932;2023-04-03T11:26:31;22.40;23.20
7341;DHT22;6870;50.944;6.932;2023-04-03T11:29:07;22.00;24.00
7341;DHT22;6870;50.944;6.932;2023-04-03T11:32:01;22.40;24.10
7341;DHT22;6870;50.944;6.932;2023-04-03T11:34:39;22.10;24.00
7341;DHT22;6870;50.944;6.932;2023-04-03T11:37:16;22.50;24.20
7341;DHT22;6870;50.944;6.932;2023-04-03T11:39:53;22.60;24.00
7341;DHT22;6870;50.944;6.932;2023-04-03T11:42:31;22.50;23.70
7341;DHT22;6870;50.944;6.932;2023-04-03T11:45:25;22.50;23.60
7341;DHT22;6870;50.944;6.932;2023-04-03T11:47:58;22.70;23.70
7341;DHT22;6870;50.944;6.932;2023-04-03T11:50:47;22.50;23.50
7341;DHT22;6870;50.944;6.932;2023-04-03T11:53:31;22.60;23.50
7341;DHT22;6870;50.944;6.932;2023-04-03T11:59:23;22.90;23.10
7341;DHT22;6870;50.944;6.932;2023-04-03T12:01:53;22.50;23.00
7341;DHT22;6870;50.944;6.932;2023-04-03T12:04:23;22.60;23.20
7341;DHT22;6870;50.944;6.932;2023-04-03T12:07:12;22.90;23.40
7341;DHT22;6870;50.944;6.932;2023-04-03T12:12:59;22.60;23.50
7341;DHT22;6870;50.944;6.932;2023-04-03T12:15:53;22.60;23.40
7341;DHT22;6870;50.944;6.932;2023-04-03T12:18:55;22.70;24.40
7341;DHT22;6870;50.944;6.932;2023-04-03T12:24:43;22.90;24.00
7341;DHT22;6870;50.944;6.932;2023-04-03T12:27:24;22.70;23.50
7341;DHT22;6870;50.944;6.932;2023-04-03T12:30:01;22.50;23.80
7341;DHT22;6870;50.944;6.932;2023-04-03T12:32:51;22.40;23.80
7341;DHT22;6870;50.944;6.932;2023-04-03T12:35:44;22.70;24.20
7341;DHT22;6870;50.944;6.932;2023-04-03T12:38:37;22.60;23.90
7341;DHT22;6870;50.944;6.932;2023-04-03T12:41:21;22.40;23.80
7341;DHT22;6870;50.944;6.932;2023-04-03T12:44:01;22.80;24.00
7341;DHT22;6870;50.944;6.932;2023-04-03T12:46:39;22.40;23.70
7341;DHT22;6870;50.944;6.932;2023-04-03T12:49:26;22.50;23.80
7341;DHT22;6870;50.944;6.932;2023-04-03T12:52:06;22.20;23.60
7341;DHT22;6870;50.944;6.932;2023-04-03T12:54:46;22.40;24.00
7341;DHT22;6870;50.944;6.932;2023-04-03T12:57:18;22.60;23.90
7341;DHT22;6870;50.944;6.932;2023-04-03T12:59:48;22.30;23.70
7341;DHT22;6870;50.944;6.932;2023-04-03T13:02:25;22.30;23.50
7341;DHT22;6870;50.944;6.932;2023-04-03T13:04:58;22.70;23.90
7341;DHT22;6870;50.944;6.932;2023-04-03T13:07:29;22.60;23.70
7341;DHT22;6870;50.944;6.932;2023-04-03T13:10:14;22.50;23.70
7341;DHT22;6870;50.944;6.932;2023-04-03T13:12:48;22.60;24.10
7341;DHT22;6870;50.944;6.932;2023-04-03T13:15:20;23.00;24.00
7341;DHT22;6870;50.944;6.932;2023-04-03T13:17:51;22.80;23.70
7341;DHT22;6870;50.944;6.932;2023-04-03T13:20:25;22.90;24.20
7341;DHT22;6870;50.944;6.932;2023-04-03T13:22:57;22.70;24.20
7341;DHT22;6870;50.944;6.932;2023-04-03T13:25:29;23.00;23.90
7341;DHT22;6870;50.944;6.932;2023-04-03T13:27:59;22.80;23.40
7341;DHT22;6870;50.944;6.932;2023-04-03T13:30:41;22.80;24.00
7341;DHT22;6870;50.944;6.932;2023-04-03T13:33:24;23.00;24.20
7341;DHT22;6870;50.944;6.932;2023-04-03T13:36:02;22.80;23.90
7341;DHT22;6870;50.944;6.932;2023-04-03T13:38:32;22.80;24.20
7341;DHT22;6870;50.944;6.932;2023-04-03T13:41:03;23.10;24.20
7341;DHT22;6870;50.944;6.932;2023-04-03T13:43:34;22.70;24.10
7341;DHT22;6870;50.944;6.932;2023-04-03T13:46:20;22.60;23.90
7341;DHT22;6870;50.944;6.932;2023-04-03T13:48:54;22.70;23.80
7341;DHT22;6870;50.944;6.932;2023-04-03T13:51:26;22.90;24.10
7341;DHT22;6870;50.944;6.932;2023-04-03T13:53:57;23.00;23.60
7341;DHT22;6870;50.944;6.932;2023-04-03T13:56:31;22.90;23.50
7341;DHT22;6870;50.944;6.932;2023-04-03T13:59:05;23.00;23.60
7341;DHT22;6870;50.944;6.932;2023-04-03T14:01:49;23.00;23.70
7341;DHT22;6870;50.944;6.932;2023-04-03T14:04:23;23.40;23.80
7341;DHT22;6870;50.944;6.932;2023-04-03T14:06:55;23.10;23.30
7341;DHT22;6870;50.944;6.932;2023-04-03T14:09:25;23.10;23.30
7341;DHT22;6870;50.944;6.932;2023-04-03T14:12:06;23.00;22.80
7341;DHT22;6870;50.944;6.932;2023-04-03T14:14:50;23.20;23.10
7341;DHT22;6870;50.944;6.932;2023-04-03T14:17:20;22.90;20.40
7341;DHT22;6870;50.944;6.932;2023-04-03T14:19:53;23.30;13.80
7341;DHT22;6870;50.944;6.932;2023-04-03T14:22:26;22.60;8.00
7341;DHT22;6870;50.944;6.932;2023-04-03T14:24:56;21.70;4.60
7341;DHT22;6870;50.944;6.932;2023-04-03T14:27:27;21.60;7.90
7341;DHT22;6870;50.944;6.932;2023-04-03T14:29:58;21.50;6.30
7341;DHT22;6870;50.944;6.932;2023-04-03T14:32:27;21.20;6.50
7341;DHT22;6870;50.944;6.932;2023-04-03T14:34:56;21.50;8.40
7341;DHT22;6870;50.944;6.932;2023-04-03T14:37:29;21.50;7.70
7341;DHT22;6870;50.944;6.932;2023-04-03T14:40:00;21.40;7.40
7341;DHT22;6870;50.944;6.932;2023-04-03T14:42:32;21.30;3.90
7341;DHT22;6870;50.944;6.932;2023-04-03T14:45:02;21.40;8.80
7341;DHT22;6870;50.944;6.932;2023-04-03T14:47:32;21.60;7.20
7341;DHT22;6870;50.944;6.932;2023-04-03T14:50:03;21.30;6.60
7341;DHT22;6870;50.944;6.932;2023-04-03T14:52:35;21.50;7.80
7341;DHT22;6870;50.944;6.932;2023-04-03T14:55:06;21.60;8.50
7341;DHT22;6870;50.944;6.932;2023-04-03T14:57:35;21.80;9.30
7341;DHT22;6870;50.944;6.932;2023-04-03T15:00:11;22.00;10.00
7341;DHT22;6870;50.944;6.932;2023-04-03T15:02:40;22.30;9.90
7341;DHT22;6870;50.944;6.932;2023-04-03T15:05:10;22.40;10.70
7341;DHT22;6870;50.944;6.932;2023-04-03T15:07:42;22.30;11.10
7341;DHT22;6870;50.944;6.932;2023-04-03T15:10:17;22.30;11.60
7341;DHT22;6870;50.944;6.932;2023-04-03T15:12:47;22.50;12.00
7341;DHT22;6870;50.944;6.932;2023-04-03T15:15:17;22.50;11.60
7341;DHT22;6870;50.944;6.932;2023-04-03T15:17:48;22.50;12.00
7341;DHT22;6870;50.944;6.932;2023-04-03T15:20:22;22.70;12.40
7341;DHT22;6870;50.944;6.932;2023-04-03T15:22:53;22.60;12.40
7341;DHT22;6870;50.944;6.932;2023-04-03T15:25:22;22.40;12.60
7341;DHT22;6870;50.944;6.932;2023-04-03T15:27:51;22.40;12.80
7341;DHT22;6870;50.944;6.932;2023-04-03T15:30:20;22.40;13.10
7341;DHT22;6870;50.944;6.932;2023-04-03T15:32:49;22.70;13.50
7341;DHT22;6870;50.944;6.932;2023-04-03T15:35:18;22.60;13.50
7341;DHT22;6870;50.944;6.932;2023-04-03T15:37:46;22.40;13.30
7341;DHT22;6870;50.944;6.932;2023-04-03T15:40:16;22.40;13.20
7341;DHT22;6870;50.944;6.932;2023-04-03T15:42:44;22.60;14.10
7341;DHT22;6870;50.944;6.932;2023-04-03T15:45:12;22.50;12.60
7341;DHT22;6870;50.944;6.932;2023-04-03T15:47:40;22.40;14.10
7341;DHT22;6870;50.944;6.932;2023-04-03T15:50:09;22.50;13.60
7341;DHT22;6870;50.944;6.932;2023-04-03T15:52:38;22.60;14.20
7341;DHT22;6870;50.944;6.932;2023-04-03T15:55:06;22.50;14.30
7341;DHT22;6870;50.944;6.932;2023-04-03T15:57:36;22.30;14.90
7341;DHT22;6870;50.944;6.932;2023-04-03T16:00:10;22.30;14.80
7341;DHT22;6870;50.944;6.932;2023-04-03T16:02:39;22.40;15.40
7341;DHT22;6870;50.944;6.932;2023-04-03T16:05:09;22.20;15.40
7341;DHT22;6870;50.944;6.932;2023-04-03T16:07:38;22.50;15.70
7341;DHT22;6870;50.944;6.932;2023-04-03T16:10:08;22.30;15.50
7341;DHT22;6870;50.944;6.932;2023-04-03T16:12:40;22.50;15.90
7341;DHT22;6870;50.944;6.932;2023-04-03T16:15:09;22.20;16.20
7341;DHT22;6870;50.944;6.932;2023-04-03T16:17:59;22.40;16.30
7341;DHT22;6870;50.944;6.932;2023-04-03T16:20:28;22.10;16.40
7341;DHT22;6870;50.944;6.932;2023-04-03T16:22:57;22.20;16.70
7341;DHT22;6870;50.944;6.932;2023-04-03T16:25:26;22.50;17.10
7341;DHT22;6870;50.944;6.932;2023-04-03T16:27:55;22.30;16.90
7341;DHT22;6870;50.944;6.932;2023-04-03T16:30:23;22.10;16.50
7341;DHT22;6870;50.944;6.932;2023-04-03T16:32:51;22.50;17.10
7341;DHT22;6870;50.944;6.932;2023-04-03T16:35:20;22.20;16.80
7341;DHT22;6870;50.944;6.932;2023-04-03T16:37:48;22.30;17.30
7341;DHT22;6870;50.944;6.932;2023-04-03T16:40:16;22.10;17.40
7341;DHT22;6870;50.944;6.932;2023-04-03T16:42:44;22.20;17.30
7341;DHT22;6870;50.944;6.932;2023-04-03T16:45:14;22.00;17.30